createdAt,value
2024-01-16T00:00:39.734Z,17.13
2024-01-16T00:03:08.918Z,17.33
2024-01-16T00:05:38.150Z,26.08
2024-01-16T00:08:08.091Z,24.90
2024-01-16T00:10:37.309Z,19.33
2024-01-16T00:13:06.632Z,22.00
2024-01-16T00:15:35.742Z,17.00
2024-01-16T00:18:05.058Z,20.50
2024-01-16T00:20:34.280Z,18.27
2024-01-16T00:23:03.743Z,22.90
2024-01-16T00:25:32.841Z,21.95
2024-01-16T00:28:02.428Z,19.45
2024-01-16T00:30:32.617Z,21.55
2024-01-16T00:33:02.043Z,16.13
2024-01-16T00:35:31.290Z,22.83
2024-01-16T00:38:00.572Z,26.85
2024-01-16T00:40:29.690Z,25.90
2024-01-16T00:42:59.140Z,24.50
2024-01-16T00:45:28.390Z,23.95
2024-01-16T00:47:58.186Z,26.13
2024-01-16T00:50:27.564Z,25.17
2024-01-16T00:52:56.704Z,26.75
2024-01-16T00:55:25.776Z,25.25
2024-01-16T00:57:56.205Z,25.40
2024-01-16T01:00:25.339Z,24.50
2024-01-16T01:02:54.448Z,17.85
2024-01-16T01:05:24.848Z,21.73
2024-01-16T01:07:53.987Z,20.73
2024-01-16T01:10:23.214Z,22.27
2024-01-16T01:12:56.127Z,26.88
2024-01-16T01:15:25.332Z,25.35
2024-01-16T01:17:55.113Z,22.38
2024-01-16T01:20:24.408Z,22.52
2024-01-16T01:22:53.486Z,25.30
2024-01-16T01:25:22.597Z,17.10
2024-01-16T01:27:51.703Z,21.27
2024-01-16T01:30:20.996Z,16.98
2024-01-16T01:32:50.277Z,16.95
2024-01-16T01:35:22.099Z,15.48
2024-01-16T01:37:51.464Z,15.02
2024-01-16T01:40:23.315Z,18.00
2024-01-16T01:42:52.918Z,17.90
2024-01-16T01:45:24.408Z,10.32
2024-01-16T01:47:54.132Z,16.35
2024-01-16T01:50:23.482Z,12.48
2024-01-16T01:52:52.689Z,12.52
2024-01-16T01:55:21.997Z,10.65
2024-01-16T01:57:51.283Z,11.90
2024-01-16T02:00:21.191Z,11.43
2024-01-16T02:02:50.446Z,12.93
2024-01-16T02:05:20.580Z,15.18
2024-01-16T02:07:49.924Z,19.05
2024-01-16T02:10:19.122Z,10.10
2024-01-16T02:12:48.279Z,9.10
2024-01-16T02:15:17.529Z,15.88
2024-01-16T02:17:46.854Z,12.85
2024-01-16T02:20:16.281Z,11.57
2024-01-16T02:22:51.314Z,10.07
2024-01-16T02:25:22.814Z,11.10
2024-01-16T02:27:51.962Z,14.35
2024-01-16T02:30:21.302Z,12.85
2024-01-16T02:32:50.571Z,13.52
2024-01-16T02:35:20.860Z,12.43
2024-01-16T02:37:50.037Z,13.63
2024-01-16T02:40:19.479Z,10.43
2024-01-16T02:42:49.029Z,10.40
2024-01-16T02:45:18.269Z,12.10
2024-01-16T02:47:47.794Z,14.25
2024-01-16T02:50:17.077Z,15.55
2024-01-16T02:52:46.184Z,15.07
2024-01-16T02:55:15.431Z,12.38
2024-01-16T02:57:44.747Z,12.38
2024-01-16T03:00:14.420Z,15.57
2024-01-16T03:02:43.825Z,19.48
2024-01-16T03:05:17.306Z,18.23
2024-01-16T03:07:46.478Z,17.20
2024-01-16T03:10:15.709Z,18.42
2024-01-16T03:12:45.043Z,19.52
2024-01-16T03:15:14.264Z,19.83
2024-01-16T03:17:43.606Z,12.25
2024-01-16T03:20:14.063Z,18.35
2024-01-16T03:22:43.269Z,16.30
2024-01-16T03:25:14.486Z,17.52
2024-01-16T03:27:43.595Z,10.60
2024-01-16T03:30:21.679Z,12.13
2024-01-16T03:32:51.171Z,13.73
2024-01-16T03:35:20.458Z,21.38
2024-01-16T03:37:49.623Z,17.30
2024-01-16T03:40:18.829Z,11.32
2024-01-16T03:42:47.936Z,11.68
2024-01-16T03:45:18.107Z,27.60
2024-01-16T03:47:47.569Z,18.13
2024-01-16T03:50:17.377Z,12.90
2024-01-16T03:52:46.527Z,12.98
2024-01-16T03:55:15.703Z,13.82
2024-01-16T03:57:44.811Z,10.48
2024-01-16T04:00:16.819Z,13.02
2024-01-16T04:02:45.915Z,13.55
2024-01-16T04:05:15.093Z,9.07
2024-01-16T04:07:44.238Z,12.50
2024-01-16T04:10:13.413Z,15.93
2024-01-16T04:12:42.563Z,11.32
2024-01-16T04:15:12.126Z,13.48
2024-01-16T04:17:41.265Z,10.70
2024-01-16T04:20:11.547Z,11.73
2024-01-16T04:22:40.614Z,12.27
2024-01-16T04:25:12.709Z,11.00
2024-01-16T04:27:41.997Z,13.50
2024-01-16T04:30:11.756Z,10.93
2024-01-16T04:32:41.038Z,15.10
2024-01-16T04:35:11.056Z,13.27
2024-01-16T04:37:43.080Z,10.02
2024-01-16T04:40:12.644Z,14.05
2024-01-16T04:42:41.857Z,15.57
2024-01-16T04:45:11.665Z,17.30
2024-01-16T04:47:40.939Z,15.38
2024-01-16T04:50:10.605Z,10.05
2024-01-16T04:52:39.915Z,11.68
2024-01-16T04:55:09.829Z,14.27
2024-01-16T04:57:39.025Z,9.73
2024-01-16T05:00:09.296Z,13.43
2024-01-16T05:02:38.719Z,15.18
2024-01-16T05:05:44.520Z,11.45
2024-01-16T05:08:16.662Z,12.43
2024-01-16T05:10:46.884Z,10.38
2024-01-16T05:13:18.785Z,8.90
2024-01-16T05:15:48.037Z,9.63
2024-01-16T05:18:17.362Z,14.77
2024-01-16T05:24:15.259Z,11.80
2024-01-16T05:26:44.489Z,8.93
2024-01-16T05:29:14.320Z,9.90
2024-01-16T05:31:46.481Z,10.43
2024-01-16T05:34:15.667Z,10.10
2024-01-16T05:36:46.355Z,14.15
2024-01-16T05:39:15.499Z,13.85
2024-01-16T05:41:47.318Z,18.00
2024-01-16T05:44:16.609Z,11.68
2024-01-16T05:46:46.659Z,11.50
2024-01-16T05:49:15.899Z,10.10
2024-01-16T05:51:47.451Z,14.32
2024-01-16T05:54:16.532Z,9.13
2024-01-16T05:56:45.730Z,8.30
2024-01-16T05:59:14.966Z,17.70
2024-01-16T06:01:44.127Z,14.68
2024-01-16T06:04:14.813Z,10.57
2024-01-16T06:06:47.661Z,10.32
2024-01-16T06:09:16.970Z,13.20
2024-01-16T06:11:46.163Z,13.20
2024-01-16T06:14:15.441Z,7.72
2024-01-16T06:16:44.650Z,13.30
2024-01-16T06:19:13.838Z,13.32
2024-01-16T06:21:43.025Z,11.60
2024-01-16T06:24:13.822Z,12.63
2024-01-16T06:26:42.985Z,10.48
2024-01-16T06:29:21.145Z,10.23
2024-01-16T06:31:54.156Z,8.80
2024-01-16T06:34:23.339Z,10.32
2024-01-16T06:36:52.617Z,9.23
2024-01-16T06:39:21.831Z,14.07
2024-01-16T06:41:51.084Z,15.57
2024-01-16T06:44:21.230Z,9.82
2024-01-16T06:46:50.444Z,13.70
2024-01-16T06:49:19.706Z,10.73
2024-01-16T06:51:48.955Z,11.98
2024-01-16T06:54:18.175Z,10.68
2024-01-16T06:56:48.291Z,6.53
2024-01-16T06:59:21.826Z,10.27
2024-01-16T07:01:51.462Z,10.00
2024-01-16T07:04:20.607Z,11.80
2024-01-16T07:06:50.017Z,6.07
2024-01-16T07:09:20.817Z,8.40
2024-01-16T07:11:50.652Z,13.80
2024-01-16T07:14:20.033Z,15.80
2024-01-16T07:16:49.488Z,9.27
2024-01-16T07:19:18.724Z,10.00
2024-01-16T07:21:47.920Z,9.38
2024-01-16T07:24:18.652Z,10.00
2024-01-16T07:26:47.899Z,12.68
2024-01-16T07:29:17.051Z,9.77
2024-01-16T07:31:46.124Z,8.88
2024-01-16T07:34:19.572Z,8.88
2024-01-16T07:36:48.991Z,8.32
2024-01-16T07:39:18.092Z,9.05
2024-01-16T07:41:47.278Z,8.10
2024-01-16T07:44:16.487Z,8.35
2024-01-16T07:46:45.675Z,7.95
2024-01-16T07:49:14.900Z,6.43
2024-01-16T07:51:44.233Z,11.43
2024-01-16T07:54:15.496Z,6.60
2024-01-16T07:56:45.132Z,11.70
2024-01-16T07:59:14.326Z,12.43
2024-01-16T08:01:43.471Z,13.93
2024-01-16T08:04:12.830Z,11.15
2024-01-16T08:06:42.455Z,11.45
2024-01-16T08:09:14.405Z,13.82
2024-01-16T08:11:43.648Z,11.13
2024-01-16T08:14:13.309Z,12.75
2024-01-16T08:16:42.563Z,10.18
2024-01-16T08:19:11.817Z,10.93
2024-01-16T08:21:41.130Z,11.30
2024-01-16T08:24:10.312Z,8.55
2024-01-16T08:26:39.476Z,10.38
2024-01-16T08:29:08.692Z,9.27
2024-01-16T08:31:37.862Z,7.50
2024-01-16T08:34:07.076Z,7.07
2024-01-16T08:36:36.258Z,10.02
2024-01-16T08:39:07.769Z,11.55
2024-01-16T08:41:36.965Z,14.05
2024-01-16T08:44:06.529Z,12.00
2024-01-16T08:46:35.680Z,7.90
2024-01-16T08:49:04.859Z,7.50
2024-01-16T08:51:33.972Z,12.18
2024-01-16T08:54:03.151Z,9.43
2024-01-16T08:56:32.277Z,8.38
2024-01-16T08:59:56.777Z,13.88
2024-01-16T09:02:26.565Z,13.15
2024-01-16T09:04:55.932Z,8.05
2024-01-16T09:07:25.221Z,10.23
2024-01-16T09:09:54.383Z,12.45
2024-01-16T09:12:23.585Z,9.93
2024-01-16T09:14:52.755Z,14.02
2024-01-16T09:17:23.121Z,14.38
2024-01-16T09:19:52.290Z,15.30
2024-01-16T09:22:21.517Z,11.18
2024-01-16T09:24:50.663Z,8.80
2024-01-16T09:27:19.860Z,12.07
2024-01-16T09:29:49.154Z,10.05
2024-01-16T09:32:18.412Z,10.75
2024-01-16T09:34:47.700Z,7.80
2024-01-16T09:37:17.048Z,9.63
2024-01-16T09:39:46.734Z,6.57
2024-01-16T09:42:15.945Z,9.75
2024-01-16T09:44:45.087Z,7.18
2024-01-16T09:47:14.760Z,9.55
2024-01-16T09:49:45.287Z,14.48
2024-01-16T09:52:17.842Z,15.57
2024-01-16T09:54:48.864Z,13.73
2024-01-16T09:57:21.045Z,8.52
2024-01-16T09:59:51.661Z,9.70
2024-01-16T10:02:23.522Z,10.73
2024-01-16T10:04:55.714Z,8.13
2024-01-16T10:07:30.119Z,10.75
2024-01-16T10:10:02.523Z,11.65
2024-01-16T10:12:32.156Z,11.27
2024-01-16T10:15:02.386Z,7.80
2024-01-16T10:17:46.997Z,20.23
2024-01-16T10:20:16.245Z,12.07
2024-01-16T10:22:56.440Z,12.35
2024-01-16T10:25:25.591Z,13.55
2024-01-16T10:28:07.475Z,14.68
2024-01-16T10:30:36.821Z,9.10
2024-01-16T10:33:19.413Z,11.68
2024-01-16T10:35:48.738Z,12.80
2024-01-16T10:38:27.816Z,10.68
2024-01-16T10:41:20.572Z,8.13
2024-01-16T10:43:49.765Z,10.60
2024-01-16T10:46:21.990Z,12.05
2024-01-16T10:49:06.470Z,12.57
2024-01-16T10:51:35.868Z,19.27
2024-01-16T10:54:10.628Z,10.00
2024-01-16T10:56:40.387Z,12.43
2024-01-16T10:59:28.557Z,13.98
2024-01-16T11:02:02.837Z,13.02
2024-01-16T11:04:32.875Z,13.50
2024-01-16T11:07:03.290Z,13.52
2024-01-16T11:09:33.221Z,13.85
2024-01-16T11:12:02.553Z,13.65
2024-01-16T11:14:33.515Z,16.92
2024-01-16T11:17:04.219Z,10.20
2024-01-16T11:19:48.326Z,10.98
2024-01-16T11:22:25.150Z,12.70
2024-01-16T11:25:18.051Z,13.95
2024-01-16T11:27:53.779Z,15.90
2024-01-16T11:30:35.131Z,16.77
2024-01-16T11:33:04.365Z,15.23
2024-01-16T11:35:42.091Z,13.40
2024-01-16T11:38:21.579Z,15.10
2024-01-16T11:40:50.918Z,20.48
2024-01-16T11:43:35.436Z,13.80
2024-01-16T11:46:05.940Z,18.70
2024-01-16T11:48:35.363Z,17.88
2024-01-16T11:51:27.720Z,23.00
2024-01-16T11:53:56.808Z,17.15
2024-01-16T11:56:46.727Z,30.50
2024-01-16T11:59:32.387Z,24.63
2024-01-16T12:02:06.000Z,19.90
2024-01-16T12:07:04.354Z,21.55
2024-01-16T12:09:33.600Z,17.23
2024-01-16T12:12:05.021Z,20.67
2024-01-16T12:14:34.590Z,18.90
2024-01-16T12:17:16.304Z,18.67
2024-01-16T12:19:45.877Z,21.45
2024-01-16T12:22:23.753Z,19.90
2024-01-16T12:24:58.122Z,20.48
2024-01-16T12:27:27.381Z,17.23
2024-01-16T12:30:10.964Z,18.13
2024-01-16T12:32:40.170Z,16.87
2024-01-16T12:35:10.146Z,20.55
2024-01-16T12:37:39.293Z,18.27
2024-01-16T12:40:09.125Z,26.52
2024-01-16T12:42:38.419Z,21.13
2024-01-16T12:45:12.835Z,24.55
2024-01-16T12:47:42.243Z,24.70
2024-01-16T12:50:11.732Z,23.85
2024-01-16T12:52:41.106Z,23.23
2024-01-16T12:55:10.778Z,26.50
2024-01-16T12:57:39.994Z,24.15
2024-01-16T13:00:27.899Z,22.73
2024-01-16T13:03:01.088Z,28.48
2024-01-16T13:05:30.489Z,31.95
2024-01-16T13:08:06.250Z,29.27
2024-01-16T13:10:35.450Z,30.33
2024-01-16T13:13:21.974Z,33.10
2024-01-16T13:15:52.097Z,33.28
2024-01-16T13:18:25.345Z,42.65
2024-01-16T13:20:56.467Z,32.85
2024-01-16T13:23:35.655Z,36.42
2024-01-16T13:26:06.943Z,42.63
2024-01-16T13:28:36.354Z,43.85
2024-01-16T13:31:06.192Z,39.03
2024-01-16T13:33:35.486Z,35.30
2024-01-16T13:36:07.076Z,43.58
2024-01-16T13:38:36.291Z,37.83
2024-01-16T13:41:05.538Z,27.52
2024-01-16T13:43:34.671Z,32.45
2024-01-16T13:46:05.435Z,32.90
2024-01-16T13:48:34.741Z,41.30
2024-01-16T13:51:06.504Z,42.08
2024-01-16T13:53:37.129Z,35.30
2024-01-16T13:56:06.619Z,44.25
2024-01-16T13:58:37.402Z,47.92
2024-01-16T14:01:06.763Z,45.85
2024-01-16T14:03:35.955Z,49.63
2024-01-16T14:06:06.634Z,53.20
2024-01-16T14:08:36.394Z,50.30
2024-01-16T14:11:05.650Z,48.30
2024-01-16T14:13:34.941Z,41.88
2024-01-16T14:16:04.128Z,52.83
2024-01-16T14:18:33.820Z,51.13
2024-01-16T14:21:03.100Z,42.33
2024-01-16T14:23:32.320Z,34.17
2024-01-16T14:26:02.622Z,32.53
2024-01-16T14:28:32.003Z,27.80
2024-01-16T14:31:01.398Z,33.75
2024-01-16T14:33:30.869Z,37.85
2024-01-16T14:36:02.630Z,27.90
2024-01-16T14:38:32.953Z,42.22
2024-01-16T14:41:02.156Z,27.80
2024-01-16T14:43:31.607Z,26.25
2024-01-16T14:46:00.729Z,21.83
2024-01-16T14:48:29.963Z,18.05
2024-01-16T14:50:59.517Z,21.23
2024-01-16T14:53:28.693Z,22.15
2024-01-16T14:56:01.694Z,19.13
2024-01-16T14:58:30.899Z,22.90
2024-01-16T15:01:00.787Z,27.02
2024-01-16T15:03:30.173Z,23.75
2024-01-16T15:06:15.165Z,20.33
2024-01-16T15:08:45.442Z,27.70
2024-01-16T15:11:14.700Z,29.75
2024-01-16T15:13:43.942Z,30.40
2024-01-16T15:16:13.382Z,28.45
2024-01-16T15:18:42.774Z,15.50
2024-01-16T15:21:12.946Z,18.80
2024-01-16T15:23:42.211Z,21.27
2024-01-16T15:26:11.493Z,19.13
2024-01-16T15:28:44.497Z,24.58
2024-01-16T15:31:15.694Z,19.95
2024-01-16T15:33:45.270Z,19.70
2024-01-16T15:36:14.505Z,23.58
2024-01-16T15:38:43.670Z,18.23
2024-01-16T15:41:12.786Z,21.38
2024-01-16T15:43:42.275Z,23.00
2024-01-16T15:46:11.418Z,15.40
2024-01-16T15:48:41.173Z,15.10
2024-01-16T15:51:11.239Z,19.10
2024-01-16T15:53:40.651Z,17.67
2024-01-16T15:56:09.850Z,17.48
2024-01-16T15:58:39.006Z,20.58
2024-01-16T16:01:08.296Z,16.45
2024-01-16T16:03:37.481Z,16.13
2024-01-16T16:06:07.357Z,12.48
2024-01-16T16:08:37.001Z,11.55
2024-01-16T16:11:06.229Z,12.40
2024-01-16T16:13:35.355Z,13.48
2024-01-16T16:16:04.646Z,15.40
2024-01-16T16:18:39.093Z,16.55
2024-01-16T16:21:08.382Z,15.80
2024-01-16T16:23:37.638Z,15.68
2024-01-16T16:26:07.770Z,16.10
2024-01-16T16:28:36.930Z,18.88
2024-01-16T16:31:06.340Z,14.98
2024-01-16T16:33:35.926Z,12.13
2024-01-16T16:36:06.886Z,12.95
2024-01-16T16:38:36.152Z,16.83
2024-01-16T16:41:05.315Z,15.73
2024-01-16T16:43:34.461Z,15.93
2024-01-16T16:46:03.562Z,13.77
2024-01-16T16:48:32.859Z,14.63
2024-01-16T16:51:02.242Z,17.42
2024-01-16T16:53:39.023Z,17.23
2024-01-16T16:56:16.185Z,11.70
2024-01-16T16:58:49.734Z,14.85
2024-01-16T17:01:20.306Z,15.45
2024-01-16T17:03:54.415Z,13.73
2024-01-16T17:06:23.740Z,14.90
2024-01-16T17:08:52.948Z,20.70
2024-01-16T17:11:22.169Z,19.20
2024-01-16T17:13:51.357Z,12.38
2024-01-16T17:16:25.263Z,18.08
2024-01-16T17:18:54.517Z,12.48
2024-01-16T17:21:24.693Z,15.38
2024-01-16T17:23:53.942Z,18.13
2024-01-16T17:26:23.503Z,12.07
2024-01-16T17:28:52.587Z,12.77
2024-01-16T17:31:21.726Z,13.25
2024-01-16T17:33:51.141Z,13.30
2024-01-16T17:36:22.511Z,12.98
2024-01-16T17:38:58.012Z,11.75
2024-01-16T17:41:28.351Z,13.48
2024-01-16T17:43:58.472Z,11.77
2024-01-16T17:46:27.590Z,11.35
2024-01-16T17:48:57.365Z,16.80
2024-01-16T17:51:27.750Z,17.00
2024-01-16T17:53:58.178Z,12.85
2024-01-16T17:56:28.021Z,12.93
2024-01-16T17:58:57.306Z,14.57
2024-01-16T18:01:26.544Z,11.45
2024-01-16T18:03:59.272Z,14.27
2024-01-16T18:06:28.955Z,13.38
2024-01-16T18:09:00.628Z,11.43
2024-01-16T18:11:29.790Z,11.25
2024-01-16T18:13:59.069Z,16.42
2024-01-16T18:16:28.835Z,13.40
2024-01-16T18:18:58.160Z,13.35
2024-01-16T18:21:27.431Z,13.85
2024-01-16T18:23:56.517Z,14.20
2024-01-16T18:26:25.774Z,16.75
2024-01-16T18:28:56.611Z,12.15
2024-01-16T18:31:25.680Z,15.35
2024-01-16T18:33:54.906Z,11.27
2024-01-16T18:36:25.005Z,13.10
2024-01-16T18:38:54.178Z,9.98
2024-01-16T18:41:24.161Z,12.85
2024-01-16T18:43:54.744Z,11.20
2024-01-16T18:46:25.790Z,13.02
2024-01-16T18:48:55.441Z,16.15
2024-01-16T18:51:24.776Z,15.48
2024-01-16T18:53:54.805Z,15.15
2024-01-16T18:56:24.252Z,10.63
2024-01-16T18:58:57.081Z,10.55
2024-01-16T19:01:30.962Z,13.55
2024-01-16T19:04:02.994Z,15.15
2024-01-16T19:06:32.286Z,14.98
2024-01-16T19:09:01.861Z,11.25
2024-01-16T19:11:31.084Z,12.82
2024-01-16T19:14:00.200Z,13.68
2024-01-16T19:16:29.437Z,16.33
2024-01-16T19:18:59.723Z,11.63
2024-01-16T19:21:29.094Z,12.90
2024-01-16T19:23:58.309Z,10.57
2024-01-16T19:26:27.490Z,14.15
2024-01-16T19:28:56.753Z,12.25
2024-01-16T19:31:25.848Z,17.60
2024-01-16T19:33:55.088Z,18.45
2024-01-16T19:36:24.293Z,12.57
2024-01-16T19:38:53.538Z,10.68
2024-01-16T19:41:23.006Z,13.90
2024-01-16T19:43:52.197Z,14.75
2024-01-16T19:46:21.456Z,15.40
2024-01-16T19:48:50.730Z,11.23
2024-01-16T19:51:19.881Z,9.95
2024-01-16T19:53:49.043Z,11.90
2024-01-16T19:56:18.297Z,11.80
2024-01-16T19:58:49.710Z,12.32
2024-01-16T20:01:19.186Z,13.80
2024-01-16T20:03:48.524Z,15.00
2024-01-16T20:06:17.749Z,15.13
2024-01-16T20:08:51.778Z,15.75
2024-01-16T20:11:34.731Z,14.38
2024-01-16T20:14:04.209Z,13.35
2024-01-16T20:16:33.498Z,15.27
2024-01-16T20:19:02.911Z,15.77
2024-01-16T20:21:32.581Z,11.65
2024-01-16T20:24:03.489Z,10.50
2024-01-16T20:26:32.720Z,13.20
2024-01-16T20:29:01.980Z,12.50
2024-01-16T20:31:31.470Z,17.10
2024-01-16T20:34:00.841Z,14.75
2024-01-16T20:36:30.208Z,13.25
2024-01-16T20:38:59.446Z,13.48
2024-01-16T20:41:28.674Z,10.30
2024-01-16T20:43:57.876Z,13.10
2024-01-16T20:46:30.100Z,13.75
2024-01-16T20:48:59.337Z,13.55
2024-01-16T20:51:31.035Z,12.35
2024-01-16T20:54:00.347Z,12.25
2024-01-16T20:56:29.543Z,13.68
2024-01-16T20:58:58.639Z,14.68
2024-01-16T21:02:22.861Z,12.48
2024-01-16T21:04:52.286Z,10.68
2024-01-16T21:07:24.503Z,13.73
2024-01-16T21:09:53.650Z,11.40
2024-01-16T21:12:24.093Z,12.88
2024-01-16T21:14:53.263Z,13.15
2024-01-16T21:17:22.552Z,12.75
2024-01-16T21:19:52.121Z,10.13
2024-01-16T21:22:30.723Z,14.45
2024-01-16T21:25:07.093Z,12.25
2024-01-16T21:27:39.381Z,13.52
2024-01-16T21:30:10.372Z,13.70
2024-01-16T21:32:39.765Z,12.32
2024-01-16T21:35:09.400Z,14.10
2024-01-16T21:37:39.384Z,12.85
2024-01-16T21:40:13.494Z,11.38
2024-01-16T21:45:11.800Z,15.93
2024-01-16T21:47:41.030Z,20.05
2024-01-16T21:50:13.090Z,17.48
2024-01-16T21:52:42.599Z,15.50
2024-01-16T21:55:11.907Z,14.57
2024-01-16T21:57:42.596Z,15.80
2024-01-16T22:00:14.226Z,18.73
2024-01-16T22:02:43.399Z,20.00
2024-01-16T22:05:15.326Z,18.30
2024-01-16T22:07:44.541Z,20.75
2024-01-16T22:10:13.647Z,16.33
2024-01-16T22:12:42.915Z,23.58
2024-01-16T22:15:14.065Z,22.80
2024-01-16T22:17:44.866Z,23.08
2024-01-16T22:20:14.669Z,27.02
2024-01-16T22:22:43.878Z,27.33
2024-01-16T22:25:13.063Z,28.67
2024-01-16T22:27:42.354Z,22.30
2024-01-16T22:30:14.365Z,23.50
2024-01-16T22:32:43.776Z,19.60
2024-01-16T22:35:13.349Z,24.73
2024-01-16T22:37:47.797Z,18.50
2024-01-16T22:40:18.621Z,21.55
2024-01-16T22:42:47.712Z,21.20
2024-01-16T22:45:18.652Z,20.02
2024-01-16T22:47:47.945Z,20.98
2024-01-16T22:50:17.228Z,16.52
2024-01-16T22:52:46.449Z,23.42
2024-01-16T22:55:15.559Z,30.60
2024-01-16T22:57:44.639Z,25.13
2024-01-16T23:00:22.887Z,14.93
2024-01-16T23:02:52.720Z,20.35
2024-01-16T23:05:28.251Z,20.50
2024-01-16T23:07:58.885Z,20.23
2024-01-16T23:10:28.133Z,27.58
2024-01-16T23:12:57.571Z,60.05
2024-01-16T23:15:26.662Z,79.78
2024-01-16T23:17:56.023Z,184.60
2024-01-16T23:20:26.101Z,75.68
2024-01-16T23:22:57.088Z,36.35
2024-01-16T23:25:26.267Z,27.80
2024-01-16T23:27:55.484Z,27.20
2024-01-16T23:30:24.706Z,32.05
2024-01-16T23:32:53.936Z,38.10
2024-01-16T23:35:23.226Z,53.97
2024-01-16T23:37:53.783Z,45.55
2024-01-16T23:40:22.983Z,50.25
2024-01-16T23:42:52.052Z,56.28
2024-01-16T23:45:27.761Z,54.85
2024-01-16T23:48:02.379Z,46.30
2024-01-16T23:50:31.649Z,51.92
2024-01-16T23:53:01.422Z,44.72
2024-01-16T23:55:30.464Z,45.65
2024-01-16T23:58:00.297Z,36.75
